createdAt,value
2016-07-26T00:00:17.572Z,74.71
2016-07-26T00:01:17.584Z,75
2016-07-26T00:02:17.616Z,75.29
2016-07-26T00:03:17.600Z,75.1
2016-07-26T00:04:17.597Z,75.58
2016-07-26T00:05:17.633Z,75.2
2016-07-26T00:06:17.630Z,75.1
2016-07-26T00:07:17.631Z,75
2016-07-26T00:08:17.637Z,75
2016-07-26T00:09:17.665Z,75.29
2016-07-26T00:10:17.657Z,75.39
2016-07-26T00:11:17.657Z,75.2
2016-07-26T00:12:17.669Z,75.2
2016-07-26T00:13:17.678Z,75.58
2016-07-26T00:14:17.701Z,75.58
2016-07-26T00:15:17.700Z,75.39
2016-07-26T00:16:17.718Z,75.39
2016-07-26T00:17:17.710Z,75.39
2016-07-26T00:18:17.742Z,75.1
2016-07-26T00:19:17.754Z,75.39
2016-07-26T00:20:17.739Z,75.29
2016-07-26T00:21:17.766Z,75.2
2016-07-26T00:22:17.755Z,75.2
2016-07-26T00:23:17.771Z,75.29
2016-07-26T00:24:17.771Z,75.48
2016-07-26T00:25:17.800Z,75.48
2016-07-26T00:26:17.809Z,75.58
2016-07-26T00:27:17.803Z,75.2
2016-07-26T00:28:17.816Z,75.48
2016-07-26T00:29:17.824Z,75.48
2016-07-26T00:30:17.828Z,75.39
2016-07-26T00:31:17.852Z,75.2
2016-07-26T00:32:17.867Z,75.26
2016-07-26T00:33:17.875Z,75
2016-07-26T00:34:17.872Z,75.29
2016-07-26T00:35:17.876Z,75.29
2016-07-26T00:36:17.888Z,75.48
2016-07-26T00:37:17.886Z,75.39
2016-07-26T00:38:17.901Z,75.29
2016-07-26T00:39:17.906Z,75.48
2016-07-26T00:40:17.937Z,75.48
2016-07-26T00:41:17.941Z,75.2
2016-07-26T00:42:17.931Z,75.48
2016-07-26T00:43:17.962Z,75.58
2016-07-26T00:44:17.947Z,75.39
2016-07-26T00:45:17.962Z,75.2
2016-07-26T00:46:17.963Z,75.48
2016-07-26T00:47:18.003Z,75.48
2016-07-26T00:48:17.993Z,75.39
2016-07-26T00:49:18.015Z,75.2
2016-07-26T00:50:18.018Z,75.39
2016-07-26T00:51:18.027Z,75.58
2016-07-26T00:52:18.036Z,75.39
2016-07-26T00:53:18.028Z,75.2
2016-07-26T00:54:18.059Z,75.58
2016-07-26T00:55:18.062Z,75.2
2016-07-26T00:56:18.058Z,75.2
2016-07-26T00:57:18.080Z,75
2016-07-26T00:58:18.088Z,75.2
2016-07-26T00:59:18.082Z,75.2
2016-07-26T01:00:18.089Z,75
2016-07-26T01:01:18.111Z,75
2016-07-26T01:02:18.108Z,75
2016-07-26T01:03:18.122Z,75.2
2016-07-26T01:04:18.144Z,75
2016-07-26T01:05:18.146Z,75.29
2016-07-26T01:06:18.167Z,75.1
2016-07-26T01:07:18.159Z,75.29
2016-07-26T01:08:18.158Z,75
2016-07-26T01:09:18.176Z,75.39
2016-07-26T01:10:18.200Z,75.54
2016-07-26T01:11:18.205Z,75.48
2016-07-26T01:12:18.194Z,75.54
2016-07-26T01:13:18.208Z,75.26
2016-07-26T01:14:18.220Z,75.16
2016-07-26T01:15:18.243Z,75.45
2016-07-26T01:16:18.233Z,75.45
2016-07-26T01:17:18.250Z,75.54
2016-07-26T01:18:18.245Z,75.45
2016-07-26T01:19:18.268Z,75.54
2016-07-26T01:20:18.287Z,75.45
2016-07-26T01:21:18.291Z,75.39
2016-07-26T01:22:18.298Z,75.54
2016-07-26T01:23:18.291Z,75.54
2016-07-26T01:24:18.315Z,75.35
2016-07-26T01:25:18.311Z,75.54
2016-07-26T01:26:18.330Z,75.35
2016-07-26T01:27:18.346Z,75.2
2016-07-26T01:28:18.353Z,75.35
2016-07-26T01:29:18.349Z,75.16
2016-07-26T01:30:18.349Z,75.54
2016-07-26T01:31:18.382Z,75.16
2016-07-26T01:32:18.382Z,75.06
2016-07-26T01:33:18.392Z,75.26
2016-07-26T01:34:18.400Z,75.16
2016-07-26T01:35:18.412Z,74.96
2016-07-26T01:36:18.407Z,74.71
2016-07-26T01:37:18.428Z,74.96
2016-07-26T01:38:18.440Z,74.96
2016-07-26T01:39:18.438Z,74.68
2016-07-26T01:40:18.459Z,75.16
2016-07-26T01:41:18.466Z,74.96
2016-07-26T01:42:18.479Z,74.77
2016-07-26T01:43:18.472Z,75.16
2016-07-26T01:44:18.493Z,74.96
2016-07-26T01:45:18.498Z,74.68
2016-07-26T01:46:18.502Z,74.77
2016-07-26T01:47:18.521Z,74.96
2016-07-26T01:48:18.509Z,75.16
2016-07-26T01:49:18.529Z,75.06
2016-07-26T01:50:18.527Z,74.96
2016-07-26T01:51:18.556Z,75.16
2016-07-26T01:52:18.573Z,75.26
2016-07-26T01:53:18.567Z,75.16
2016-07-26T01:54:18.578Z,75.54
2016-07-26T01:55:18.585Z,75.26
2016-07-26T01:56:18.598Z,75.45
2016-07-26T01:57:18.587Z,75.26
2016-07-26T01:58:18.617Z,75.54
2016-07-26T01:59:18.628Z,75.35
2016-07-26T02:00:18.630Z,75.26
2016-07-26T02:01:18.635Z,75.06
2016-07-26T02:02:18.645Z,75.35
2016-07-26T02:03:18.645Z,75.35
2016-07-26T02:04:18.669Z,75.35
2016-07-26T02:05:18.666Z,75.45
2016-07-26T02:06:18.666Z,75.45
2016-07-26T02:07:18.690Z,75.54
2016-07-26T02:08:18.711Z,75.54
2016-07-26T02:09:18.695Z,75.26
2016-07-26T02:10:18.719Z,75.54
2016-07-26T02:11:18.710Z,75.45
2016-07-26T02:12:18.713Z,75.54
2016-07-26T02:13:18.729Z,75.54
2016-07-26T02:14:18.757Z,75.35
2016-07-26T02:15:18.763Z,75.26
2016-07-26T02:16:18.757Z,75.45
2016-07-26T02:17:18.765Z,75.26
2016-07-26T02:18:18.787Z,75.35
2016-07-26T02:19:18.791Z,75.26
2016-07-26T02:20:18.808Z,75.26
2016-07-26T02:21:18.811Z,75.45
2016-07-26T02:22:18.807Z,75.45
2016-07-26T02:23:18.824Z,75.54
2016-07-26T02:24:18.830Z,75.54
2016-07-26T02:25:18.840Z,75.45
2016-07-26T02:26:18.859Z,75.35
2016-07-26T02:27:18.860Z,75.45
2016-07-26T02:28:18.876Z,75.26
2016-07-26T02:29:18.862Z,75.35
2016-07-26T02:30:18.892Z,75.35
2016-07-26T02:31:18.903Z,75.06
2016-07-26T02:32:18.904Z,75.54
2016-07-26T02:33:18.911Z,75.16
2016-07-26T02:34:18.907Z,75.16
2016-07-26T02:35:18.924Z,75.26
2016-07-26T02:36:18.947Z,75.16
2016-07-26T02:37:18.938Z,74.96
2016-07-26T02:38:18.954Z,74.96
2016-07-26T02:39:18.969Z,75.26
2016-07-26T02:40:18.979Z,75.16
2016-07-26T02:41:18.968Z,74.96
2016-07-26T02:42:18.979Z,75.16
2016-07-26T02:43:18.987Z,75.26
2016-07-26T02:44:19.014Z,75.16
2016-07-26T02:45:19.027Z,75.26
2016-07-26T02:46:19.011Z,75.06
2016-07-26T02:47:19.033Z,75.26
2016-07-26T02:48:19.048Z,75.26
2016-07-26T02:49:19.057Z,75.35
2016-07-26T02:50:19.062Z,75.45
2016-07-26T02:51:19.055Z,75.54
2016-07-26T02:52:19.072Z,75.16
2016-07-26T02:53:19.073Z,75.16
2016-07-26T02:54:19.086Z,75.35
2016-07-26T02:55:19.100Z,75.06
2016-07-26T02:56:19.106Z,75.35
2016-07-26T02:57:19.127Z,74.96
2016-07-26T02:58:19.119Z,75.26
2016-07-26T02:59:19.153Z,75.45
2016-07-26T03:00:19.139Z,75.16
2016-07-26T03:01:19.154Z,74.68
2016-07-26T03:02:19.147Z,75.16
2016-07-26T03:03:19.165Z,75.45
2016-07-26T03:05:19.186Z,75.06
2016-07-26T03:06:19.184Z,74.68
2016-07-26T03:07:19.199Z,74.87
2016-07-26T03:08:19.222Z,74.77
2016-07-26T03:09:19.210Z,74.68
2016-07-26T03:10:19.216Z,74.77
2016-07-26T03:11:19.228Z,74.68
2016-07-26T03:12:19.243Z,74.77
2016-07-26T03:13:19.269Z,74.77
2016-07-26T03:14:19.277Z,74.68
2016-07-26T03:15:19.272Z,75.16
2016-07-26T03:16:19.292Z,74.96
2016-07-26T03:17:19.287Z,74.87
2016-07-26T03:18:19.306Z,74.77
2016-07-26T03:20:19.321Z,74.68
2016-07-26T03:21:19.333Z,74.96
2016-07-26T03:22:19.334Z,74.96
2016-07-26T03:23:19.333Z,74.96
2016-07-26T03:24:19.337Z,74.77
2016-07-26T03:25:19.368Z,75.06
2016-07-26T03:26:19.368Z,74.96
2016-07-26T03:27:19.381Z,75.16
2016-07-26T03:28:19.400Z,75.16
2016-07-26T03:29:19.399Z,75.26
2016-07-26T03:30:19.405Z,75.06
2016-07-26T03:31:19.419Z,74.58
2016-07-26T03:32:19.413Z,75.06
2016-07-26T03:33:19.445Z,74.68
2016-07-26T03:35:19.455Z,75.26
2016-07-26T03:36:19.451Z,74.96
2016-07-26T03:37:19.471Z,74.96
2016-07-26T03:38:19.469Z,74.68
2016-07-26T03:39:19.482Z,74.96
2016-07-26T03:40:19.506Z,75.06
2016-07-26T03:41:19.491Z,74.96
2016-07-26T03:42:19.527Z,74.96
2016-07-26T03:43:19.533Z,75.06
2016-07-26T03:44:19.537Z,74.77
2016-07-26T03:45:19.537Z,74.77
2016-07-26T03:46:19.535Z,74.87
2016-07-26T03:47:19.560Z,74.77
2016-07-26T03:48:19.547Z,74.96
2016-07-26T03:50:19.560Z,74.68
2016-07-26T03:51:19.585Z,74.68
2016-07-26T03:52:19.581Z,74.96
2016-07-26T03:53:19.607Z,74.68
2016-07-26T03:54:19.617Z,74.96
2016-07-26T03:55:19.619Z,74.96
2016-07-26T03:56:19.631Z,74.77
2016-07-26T03:57:19.649Z,75.16
2016-07-26T03:58:19.645Z,74.96
2016-07-26T03:59:19.660Z,74.68
2016-07-26T04:00:19.663Z,74.87
2016-07-26T04:01:19.673Z,74.68
2016-07-26T04:02:19.686Z,74.77
2016-07-26T04:03:19.686Z,74.77
2016-07-26T04:05:19.684Z,74.58
2016-07-26T04:06:19.718Z,74.77
2016-07-26T04:07:19.721Z,74.77
2016-07-26T04:08:19.738Z,74.68
2016-07-26T04:09:19.743Z,74.96
2016-07-26T04:10:19.750Z,74.77
2016-07-26T04:11:19.759Z,74.77
2016-07-26T04:12:19.762Z,74.77
2016-07-26T04:13:19.763Z,74.77
2016-07-26T04:14:19.766Z,74.87
2016-07-26T04:15:19.790Z,74.77
2016-07-26T04:16:19.787Z,74.77
2016-07-26T04:17:19.793Z,74.87
2016-07-26T04:18:19.810Z,74.77
2016-07-26T04:20:19.841Z,74.77
2016-07-26T04:21:19.849Z,74.77
2016-07-26T04:22:19.842Z,74.96
2016-07-26T04:23:19.849Z,74.96
2016-07-26T04:24:19.877Z,74.96
2016-07-26T04:25:19.863Z,75.06
2016-07-26T04:26:19.878Z,74.77
2016-07-26T04:27:19.901Z,74.87
2016-07-26T04:28:19.887Z,74.96
2016-07-26T04:29:19.909Z,74.68
2016-07-26T04:30:19.919Z,74.87
2016-07-26T04:31:19.932Z,74.96
2016-07-26T04:32:19.929Z,74.77
2016-07-26T04:33:19.952Z,74.96
2016-07-26T04:35:19.969Z,75.06
2016-07-26T04:36:19.970Z,74.77
2016-07-26T04:37:19.978Z,74.68
2016-07-26T04:38:19.971Z,74.58
2016-07-26T04:39:20.003Z,74.77
2016-07-26T04:40:20.000Z,74.68
2016-07-26T04:41:20.022Z,74.68
2016-07-26T04:42:20.016Z,74.87
2016-07-26T04:43:20.012Z,74.77
2016-07-26T04:44:20.038Z,74.87
2016-07-26T04:45:20.056Z,75.06
2016-07-26T04:46:20.042Z,74.96
2016-07-26T04:47:20.071Z,75.16
2016-07-26T04:48:20.069Z,75.06
2016-07-26T04:50:20.091Z,74.58
2016-07-26T04:51:20.086Z,75.16
2016-07-26T04:52:20.118Z,75.06
2016-07-26T04:53:20.113Z,75.06
2016-07-26T04:54:20.105Z,74.68
2016-07-26T04:55:20.125Z,74.48
2016-07-26T04:56:20.151Z,74.58
2016-07-26T04:57:20.149Z,74.48
2016-07-26T04:58:20.148Z,74.38
2016-07-26T04:59:20.158Z,74.1
2016-07-26T05:00:20.187Z,74.48
2016-07-26T05:01:20.173Z,74.58
2016-07-26T05:02:20.186Z,74.48
2016-07-26T05:03:20.195Z,74.48
2016-07-26T05:05:20.219Z,74.19
2016-07-26T05:06:20.222Z,74.19
2016-07-26T05:07:20.227Z,74.19
2016-07-26T05:08:20.245Z,74.19
2016-07-26T05:09:20.256Z,74.29
2016-07-26T05:10:20.254Z,74.38
2016-07-26T05:11:20.262Z,74.29
2016-07-26T05:12:20.272Z,74.29
2016-07-26T05:13:20.279Z,74.29
2016-07-26T05:14:20.305Z,74.38
2016-07-26T05:15:20.301Z,74.29
2016-07-26T05:16:20.320Z,74.48
2016-07-26T05:17:20.340Z,74.38
2016-07-26T05:18:20.331Z,74.29
2016-07-26T05:20:20.342Z,74.48
2016-07-26T05:21:20.349Z,74.29
2016-07-26T05:22:20.375Z,74.38
2016-07-26T05:23:20.379Z,74.38
2016-07-26T05:24:20.369Z,74.29
2016-07-26T05:25:20.409Z,74.68
2016-07-26T05:26:20.407Z,74.38
2016-07-26T05:27:20.419Z,74.48
2016-07-26T05:28:20.423Z,74.58
2016-07-26T05:29:20.433Z,74.19
2016-07-26T05:30:20.481Z,74
2016-07-26T05:31:20.439Z,73.9
2016-07-26T05:32:20.458Z,73.9
2016-07-26T05:34:21.157Z,74.1
2016-07-26T05:35:20.473Z,74
2016-07-26T05:36:20.488Z,74
2016-07-26T05:37:20.506Z,74
2016-07-26T05:38:20.499Z,74.19
2016-07-26T05:39:20.523Z,74.19
2016-07-26T05:40:20.529Z,74.19
2016-07-26T05:41:20.515Z,74.29
2016-07-26T05:42:20.537Z,74.42
2016-07-26T05:43:20.551Z,74.29
2016-07-26T05:44:20.559Z,74.19
2016-07-26T05:45:20.563Z,74.38
2016-07-26T05:46:20.566Z,74.19
2016-07-26T05:47:20.582Z,74.29
2016-07-26T05:48:20.587Z,74.32
2016-07-26T05:50:20.596Z,74.19
2016-07-26T05:51:20.603Z,74.1
2016-07-26T05:52:20.628Z,74.19
2016-07-26T05:53:20.635Z,74.19
2016-07-26T05:54:20.642Z,74.23
2016-07-26T05:55:20.662Z,74.1
2016-07-26T05:56:20.672Z,74.23
2016-07-26T05:57:20.684Z,73.71
2016-07-26T05:58:20.688Z,73.84
2016-07-26T05:59:20.693Z,73.74
2016-07-26T06:00:20.704Z,73.74
2016-07-26T06:01:20.702Z,74.13
2016-07-26T06:02:20.714Z,74.19
2016-07-26T06:03:20.719Z,73.74
2016-07-26T06:05:20.738Z,73.74
2016-07-26T06:06:20.740Z,73.74
2016-07-26T06:07:20.759Z,73.84
2016-07-26T06:08:20.755Z,73.74
2016-07-26T06:09:20.771Z,73.84
2016-07-26T06:10:20.771Z,73.36
2016-07-26T06:11:20.786Z,73.55
2016-07-26T06:12:20.821Z,73.55
2016-07-26T06:13:20.838Z,73.46
2016-07-26T06:14:20.831Z,73.46
2016-07-26T06:15:20.827Z,73.42
2016-07-26T06:16:20.824Z,73.65
2016-07-26T06:17:20.858Z,73.36
2016-07-26T06:18:20.874Z,73.46
2016-07-26T06:20:20.858Z,73.46
2016-07-26T06:21:20.870Z,73.36
2016-07-26T06:22:20.884Z,73.55
2016-07-26T06:23:20.894Z,73.46
2016-07-26T06:24:20.908Z,73.55
2016-07-26T06:25:20.920Z,73.55
2016-07-26T06:26:20.928Z,73.55
2016-07-26T06:27:21.643Z,73.55
2016-07-26T06:28:20.954Z,73.74
2016-07-26T06:29:20.971Z,73.74
2016-07-26T06:30:21.153Z,73.65
2016-07-26T06:31:20.995Z,73.55
2016-07-26T06:32:20.963Z,73.46
2016-07-26T06:33:20.987Z,73.65
2016-07-26T06:35:21.012Z,73.84
2016-07-26T06:36:21.011Z,73.55
2016-07-26T06:37:21.018Z,73.74
2016-07-26T06:38:21.030Z,73.84
2016-07-26T06:39:21.070Z,73.55
2016-07-26T06:40:21.054Z,73.84
2016-07-26T06:41:21.053Z,73.65
2016-07-26T06:42:21.073Z,73.84
2016-07-26T06:43:21.071Z,73.36
2016-07-26T06:44:21.076Z,73.55
2016-07-26T06:45:21.107Z,73.36
2016-07-26T06:46:21.088Z,73.84
2016-07-26T06:47:21.132Z,73.65
2016-07-26T06:48:21.121Z,74.04
2016-07-26T06:50:21.127Z,73.55
2016-07-26T06:51:21.169Z,73.55
2016-07-26T06:52:21.143Z,73.46
2016-07-26T06:53:21.185Z,73.46
2016-07-26T06:54:21.191Z,73.36
2016-07-26T06:55:21.182Z,74.04
2016-07-26T06:56:21.210Z,75.58
2016-07-26T06:57:21.218Z,75.48
2016-07-26T06:58:21.208Z,75.87
2016-07-26T06:59:21.214Z,76.16
2016-07-26T07:00:21.224Z,75.87
2016-07-26T07:01:21.243Z,75.39
2016-07-26T07:02:21.264Z,75.68
2016-07-26T07:03:21.271Z,76.06
2016-07-26T07:05:21.292Z,76.26
2016-07-26T07:06:21.265Z,76.45
2016-07-26T07:07:21.980Z,77.03
2016-07-26T07:08:21.304Z,77.42
2016-07-26T07:09:21.318Z,76.84
2016-07-26T07:10:21.303Z,77.51
2016-07-26T07:11:21.329Z,76.84
2016-07-26T07:12:21.334Z,76.45
2016-07-26T07:13:21.327Z,76.55
2016-07-26T07:14:21.349Z,76.93
2016-07-26T07:15:21.397Z,76.64
2016-07-26T07:16:21.358Z,77.13
2016-07-26T07:17:21.402Z,76.74
2016-07-26T07:18:21.417Z,77.42
2016-07-26T07:20:21.392Z,76.93
2016-07-26T07:21:21.421Z,77.03
2016-07-26T07:22:21.422Z,77.42
2016-07-26T07:23:21.428Z,77.13
2016-07-26T07:24:21.449Z,77.32
2016-07-26T07:25:21.471Z,77.32
2016-07-26T07:26:21.477Z,77.32
2016-07-26T07:27:21.481Z,76.93
2016-07-26T07:28:21.470Z,76.93
2016-07-26T07:29:21.521Z,77.13
2016-07-26T07:30:21.493Z,77.03
2016-07-26T07:31:21.511Z,76.93
2016-07-26T07:32:21.551Z,76.74
2016-07-26T07:33:21.535Z,76.55
2016-07-26T07:35:21.534Z,76.59
2016-07-26T07:36:21.574Z,76.84
2016-07-26T07:37:21.573Z,76.74
2016-07-26T07:38:21.571Z,76.64
2016-07-26T07:39:21.558Z,76.39
2016-07-26T07:40:21.596Z,76.16
2016-07-26T07:41:21.607Z,75.97
2016-07-26T07:42:21.609Z,76.35
2016-07-26T07:43:21.610Z,76.26
2016-07-26T07:44:21.625Z,76.29
2016-07-26T07:45:21.657Z,76.16
2016-07-26T07:46:21.621Z,76.29
2016-07-26T07:47:21.644Z,75.91
2016-07-26T07:48:21.653Z,76.1
2016-07-26T07:50:21.667Z,75.91
2016-07-26T07:51:21.675Z,75.71
2016-07-26T07:52:21.673Z,75.81
2016-07-26T07:53:21.718Z,75.71
2016-07-26T07:54:21.726Z,75.71
2016-07-26T07:55:21.711Z,75.71
2016-07-26T07:56:21.728Z,75.71
2016-07-26T07:57:21.715Z,76.1
2016-07-26T07:58:21.725Z,75.23
2016-07-26T07:59:21.761Z,75.43
2016-07-26T08:00:21.748Z,75.43
2016-07-26T08:01:21.776Z,75.43
2016-07-26T08:02:21.789Z,75.13
2016-07-26T08:03:21.773Z,75.23
2016-07-26T08:05:21.787Z,75.43
2016-07-26T08:06:21.822Z,75.52
2016-07-26T08:07:21.830Z,75.33
2016-07-26T08:08:21.835Z,75.04
2016-07-26T08:09:21.821Z,74.85
2016-07-26T08:10:21.850Z,74.85
2016-07-26T08:11:21.838Z,74.94
2016-07-26T08:12:21.870Z,74.94
2016-07-26T08:13:21.853Z,75.13
2016-07-26T08:14:21.897Z,74.85
2016-07-26T08:15:21.873Z,75.04
2016-07-26T08:16:21.893Z,75.04
2016-07-26T08:17:21.927Z,74.75
2016-07-26T08:18:21.901Z,74.75
2016-07-26T08:20:21.921Z,74.85
2016-07-26T08:21:21.934Z,74.94
2016-07-26T08:22:21.940Z,74.85
2016-07-26T08:23:21.968Z,75.13
2016-07-26T08:24:21.955Z,74.75
2016-07-26T08:25:21.961Z,74.65
2016-07-26T08:26:21.990Z,74.65
2016-07-26T08:27:21.978Z,74.55
2016-07-26T08:28:21.994Z,74.75
2016-07-26T08:29:22.026Z,75.43
2016-07-26T08:30:22.013Z,75.33
2016-07-26T08:31:22.012Z,75.43
2016-07-26T08:32:22.722Z,75.81
2016-07-26T08:33:22.049Z,76.39
2016-07-26T08:35:22.075Z,76.53
2016-07-26T08:36:22.089Z,75.71
2016-07-26T08:37:22.124Z,75.62
2016-07-26T08:38:22.082Z,76.33
2016-07-26T08:39:22.117Z,76.2
2016-07-26T08:40:22.095Z,76.01
2016-07-26T08:41:22.100Z,76.39
2016-07-26T08:42:22.134Z,76.2
2016-07-26T08:43:22.151Z,76.2
2016-07-26T08:44:22.128Z,76.39
2016-07-26T08:45:22.159Z,76.24
2016-07-26T08:46:22.166Z,75.95
2016-07-26T08:47:22.169Z,76.04
2016-07-26T08:48:22.190Z,76.24
2016-07-26T08:50:22.199Z,76.43
2016-07-26T08:51:22.204Z,76.24
2016-07-26T08:52:22.238Z,76.33
2016-07-26T08:53:22.236Z,76.33
2016-07-26T08:54:22.243Z,76.24
2016-07-26T08:55:22.254Z,76.24
2016-07-26T08:56:22.244Z,76.43
2016-07-26T08:57:22.261Z,76.43
2016-07-26T08:58:22.290Z,76.43
2016-07-26T08:59:22.290Z,76.53
2016-07-26T09:00:22.303Z,76.14
2016-07-26T09:01:22.329Z,76.24
2016-07-26T09:02:22.319Z,76.91
2016-07-26T09:03:22.307Z,76.33
2016-07-26T09:05:22.367Z,76.33
2016-07-26T09:06:22.366Z,77.01
2016-07-26T09:07:22.347Z,76.82
2016-07-26T09:08:22.383Z,76.72
2016-07-26T09:09:22.400Z,76.62
2016-07-26T09:10:22.385Z,76.53
2016-07-26T09:11:22.412Z,76.72
2016-07-26T09:12:22.409Z,76.43
2016-07-26T09:13:22.408Z,76.62
2016-07-26T09:14:22.418Z,76.62
2016-07-26T09:15:22.428Z,76.62
2016-07-26T09:16:22.435Z,76.62
2016-07-26T09:17:22.458Z,76.62
2016-07-26T09:18:22.481Z,76.72
2016-07-26T09:20:22.494Z,76.62
2016-07-26T09:21:22.489Z,76.72
2016-07-26T09:22:22.495Z,76.72
2016-07-26T09:23:22.530Z,76.62
2016-07-26T09:24:22.520Z,76.82
2016-07-26T09:25:22.514Z,76.33
2016-07-26T09:26:22.530Z,76.62
2016-07-26T09:27:22.553Z,76.82
2016-07-26T09:28:22.588Z,76.72
2016-07-26T09:29:22.572Z,76.62
2016-07-26T09:30:22.567Z,76.91
2016-07-26T09:31:22.577Z,76.72
2016-07-26T09:32:22.579Z,76.91
2016-07-26T09:33:22.589Z,76.62
2016-07-26T09:35:22.631Z,76.72
2016-07-26T09:36:22.613Z,76.72
2016-07-26T09:37:22.621Z,76.43
2016-07-26T09:38:22.667Z,76.33
2016-07-26T09:39:22.657Z,75.98
2016-07-26T09:40:22.647Z,76.56
2016-07-26T09:41:22.671Z,75.98
2016-07-26T09:42:22.670Z,75.79
2016-07-26T09:43:22.683Z,75.4
2016-07-26T09:44:22.719Z,75.79
2016-07-26T09:45:22.693Z,75.31
2016-07-26T09:46:22.717Z,75.31
2016-07-26T09:47:22.725Z,75.31
2016-07-26T09:48:22.734Z,75.31
2016-07-26T09:50:22.763Z,74.82
2016-07-26T09:51:22.773Z,75.21
2016-07-26T09:52:22.795Z,75.4
2016-07-26T09:53:22.769Z,75.7
2016-07-26T09:54:22.786Z,75.6
2016-07-26T09:55:22.786Z,75.5
2016-07-26T09:56:22.816Z,75.4
2016-07-26T09:57:22.817Z,75.4
2016-07-26T09:58:22.849Z,75.5
2016-07-26T09:59:22.860Z,75.5
2016-07-26T10:00:22.854Z,75.4
2016-07-26T10:01:22.863Z,75.4
2016-07-26T10:02:22.862Z,75.31
2016-07-26T10:03:22.879Z,75.31
2016-07-26T10:05:22.903Z,75.46
2016-07-26T10:06:22.914Z,75.7
2016-07-26T10:07:22.912Z,75.65
2016-07-26T10:08:22.906Z,75.65
2016-07-26T10:09:22.933Z,75.65
2016-07-26T10:10:22.935Z,75.46
2016-07-26T10:11:22.932Z,75.17
2016-07-26T10:12:22.963Z,75.46
2016-07-26T10:13:22.950Z,75.27
2016-07-26T10:14:22.969Z,75.31
2016-07-26T10:15:23.002Z,75.27
2016-07-26T10:16:23.005Z,75.46
2016-07-26T10:17:23.007Z,75.27
2016-07-26T10:18:23.015Z,75.5
2016-07-26T10:20:23.019Z,75.31
2016-07-26T10:21:23.020Z,75.4
2016-07-26T10:22:23.061Z,75.37
2016-07-26T10:23:23.056Z,75.27
2016-07-26T10:24:23.063Z,75.27
2016-07-26T10:25:23.054Z,75.56
2016-07-26T10:26:23.084Z,75.37
2016-07-26T10:27:23.110Z,75.75
2016-07-26T10:28:23.126Z,76.33
2016-07-26T10:29:23.127Z,76.72
2016-07-26T10:30:23.114Z,76.72
2016-07-26T10:31:23.113Z,77.11
2016-07-26T10:32:23.136Z,77.5
2016-07-26T10:33:23.166Z,77.01
2016-07-26T10:35:23.185Z,76.82
2016-07-26T10:36:23.169Z,76.95
2016-07-26T10:37:23.173Z,77.01
2016-07-26T10:38:23.171Z,77.3
2016-07-26T10:39:23.187Z,77.11
2016-07-26T10:40:23.232Z,77.2
2016-07-26T10:41:23.226Z,77.01
2016-07-26T10:42:23.220Z,77.59
2016-07-26T10:43:23.248Z,77.59
2016-07-26T10:44:23.252Z,77.01
2016-07-26T10:45:23.268Z,77.2
2016-07-26T10:46:23.282Z,77.24
2016-07-26T10:47:23.287Z,77.2
2016-07-26T10:48:23.281Z,76.82
2016-07-26T10:50:23.302Z,77.24
2016-07-26T10:51:23.307Z,77.44
2016-07-26T10:52:23.329Z,77.24
2016-07-26T10:53:23.331Z,77.44
2016-07-26T10:54:23.366Z,77.34
2016-07-26T10:55:23.354Z,77.34
2016-07-26T10:56:23.359Z,77.14
2016-07-26T10:57:23.361Z,77.14
2016-07-26T10:58:23.370Z,77.24
2016-07-26T10:59:23.386Z,77.44
2016-07-26T11:00:23.394Z,77.34
2016-07-26T11:01:23.396Z,77.24
2016-07-26T11:02:23.409Z,77.44
2016-07-26T11:03:23.424Z,77.53
2016-07-26T11:05:23.443Z,77.14
2016-07-26T11:06:23.449Z,77.14
2016-07-26T11:07:23.486Z,77.14
2016-07-26T11:08:23.481Z,76.76
2016-07-26T11:09:23.489Z,76.56
2016-07-26T11:10:23.499Z,76.46
2016-07-26T11:11:23.525Z,76.76
2016-07-26T11:12:23.526Z,76.37
2016-07-26T11:13:23.502Z,76.28
2016-07-26T11:14:23.534Z,76.28
2016-07-26T11:15:23.555Z,76.28
2016-07-26T11:16:23.562Z,76.28
2016-07-26T11:17:23.560Z,76.08
2016-07-26T11:18:23.562Z,75.92
2016-07-26T11:21:23.586Z,75.44
2016-07-26T11:22:23.614Z,75.34
2016-07-26T11:23:23.633Z,75.54
2016-07-26T11:24:23.611Z,75.34
2016-07-26T11:25:23.622Z,75.34
2016-07-26T11:26:23.653Z,74.96
2016-07-26T11:27:23.667Z,75.15
2016-07-26T11:28:23.656Z,74.96
2016-07-26T11:29:23.670Z,75.44
2016-07-26T11:30:23.684Z,74.86
2016-07-26T11:31:23.715Z,74.86
2016-07-26T11:32:23.711Z,74.96
2016-07-26T11:33:23.713Z,74.86
2016-07-26T11:35:23.734Z,75.05
2016-07-26T11:37:23.763Z,75.05
2016-07-26T11:38:23.766Z,75.05
2016-07-26T11:39:23.769Z,75.05
2016-07-26T11:40:23.746Z,74.96
2016-07-26T11:41:23.787Z,75.15
2016-07-26T11:42:23.795Z,75.92
2016-07-26T11:43:23.780Z,76.02
2016-07-26T11:44:23.780Z,77.09
2016-07-26T11:45:23.806Z,76.12
2016-07-26T11:46:23.815Z,76.7
2016-07-26T11:47:23.829Z,77.57
2016-07-26T11:48:23.836Z,77.76
2016-07-26T11:50:23.835Z,77.76
2016-07-26T11:51:23.895Z,78.34
2016-07-26T11:52:23.877Z,78.64
2016-07-26T11:53:23.891Z,78.64
2016-07-26T11:54:23.877Z,78.92
2016-07-26T11:55:23.915Z,78.92
2016-07-26T11:56:23.916Z,78.77
2016-07-26T11:57:23.911Z,78.92
2016-07-26T11:58:23.909Z,78.77
2016-07-26T11:59:23.945Z,78.87
2016-07-26T12:00:23.926Z,78.87
2016-07-26T12:01:23.962Z,78.97
2016-07-26T12:02:24.654Z,79.55
2016-07-26T12:03:23.982Z,79.25
2016-07-26T12:05:24.004Z,80.13
2016-07-26T12:06:23.994Z,80.42
2016-07-26T12:07:23.992Z,80.03
2016-07-26T12:08:24.004Z,80.09
2016-07-26T12:09:24.004Z,80.19
2016-07-26T12:10:24.015Z,79.8
2016-07-26T12:11:24.016Z,80.19
2016-07-26T12:12:24.052Z,79.93
2016-07-26T12:13:24.067Z,79.99
2016-07-26T12:14:24.080Z,79.64
2016-07-26T12:15:24.087Z,79.55
2016-07-26T12:16:24.086Z,79.45
2016-07-26T12:17:24.073Z,78.87
2016-07-26T12:18:24.092Z,78.77
2016-07-26T12:20:24.097Z,78.67
2016-07-26T12:21:24.106Z,77.9
2016-07-26T12:22:24.113Z,77.22
2016-07-26T12:23:24.147Z,77.67
2016-07-26T12:24:24.158Z,77.42
2016-07-26T12:25:24.163Z,77.7
2016-07-26T12:26:24.193Z,77.61
2016-07-26T12:27:24.165Z,78.19
2016-07-26T12:28:24.190Z,78.58
2016-07-26T12:29:24.185Z,78.58
2016-07-26T12:30:24.202Z,78.67
2016-07-26T12:31:24.390Z,78.48
2016-07-26T12:32:24.221Z,78.54
2016-07-26T12:33:24.222Z,78.25
2016-07-26T12:35:24.226Z,78.25
2016-07-26T12:36:24.232Z,77.96
2016-07-26T12:37:24.254Z,77.67
2016-07-26T12:38:24.251Z,77.67
2016-07-26T12:39:24.262Z,77.57
2016-07-26T12:40:24.308Z,77.37
2016-07-26T12:41:24.276Z,77.37
2016-07-26T12:42:24.318Z,77.47
2016-07-26T12:43:24.296Z,77.67
2016-07-26T12:44:24.315Z,77.47
2016-07-26T12:45:24.346Z,77.57
2016-07-26T12:46:24.330Z,77.47
2016-07-26T12:47:25.074Z,77.47
2016-07-26T12:48:24.377Z,77.76
2016-07-26T12:50:24.360Z,77.57
2016-07-26T12:51:24.369Z,77.57
2016-07-26T12:52:24.382Z,77.37
2016-07-26T12:53:24.412Z,77.37
2016-07-26T12:54:24.394Z,77.67
2016-07-26T12:55:24.431Z,77.67
2016-07-26T12:56:24.422Z,77.37
2016-07-26T12:57:24.437Z,77.19
2016-07-26T12:58:24.457Z,77.28
2016-07-26T12:59:24.449Z,77.28
2016-07-26T13:00:24.462Z,77.09
2016-07-26T13:01:24.470Z,77.47
2016-07-26T13:02:24.504Z,76.99
2016-07-26T13:03:24.490Z,77.28
2016-07-26T13:05:24.499Z,76.51
2016-07-26T13:06:24.539Z,76.41
2016-07-26T13:07:24.526Z,76.21
2016-07-26T13:08:24.527Z,76.31
2016-07-26T13:09:24.535Z,76.41
2016-07-26T13:10:24.563Z,76.12
2016-07-26T13:11:24.560Z,75.73
2016-07-26T13:12:24.586Z,75.63
2016-07-26T13:13:24.592Z,75.34
2016-07-26T13:14:24.615Z,75.44
2016-07-26T13:15:24.621Z,75.15
2016-07-26T13:16:24.632Z,75.24
2016-07-26T13:17:24.629Z,75.54
2016-07-26T13:18:24.621Z,75.54
2016-07-26T13:20:24.660Z,76.02
2016-07-26T13:21:24.672Z,76.02
2016-07-26T13:22:24.664Z,75.83
2016-07-26T13:23:24.667Z,75.92
2016-07-26T13:24:24.708Z,76.12
2016-07-26T13:25:24.711Z,76.41
2016-07-26T13:26:24.714Z,76.41
2016-07-26T13:27:24.731Z,76.6
2016-07-26T13:28:24.731Z,76.31
2016-07-26T13:29:24.741Z,76.51
2016-07-26T13:31:24.750Z,76.51
2016-07-26T13:32:24.775Z,76.31
2016-07-26T13:33:24.772Z,76.12
2016-07-26T13:35:24.776Z,76.79
2016-07-26T13:36:24.812Z,77.09
2016-07-26T13:37:24.799Z,76.89
2016-07-26T13:38:24.804Z,76.66
2016-07-26T13:39:24.842Z,76.79
2016-07-26T13:40:24.840Z,76.89
2016-07-26T13:41:24.824Z,77.05